sensor_id;sensor_type;location;lat;lon;timestamp;temperature;humidity
1351;DHT22;669;50.206;9.998;2023-05-18T00:01:11;7.80;45.60
1351;DHT22;669;50.206;9.998;2023-05-18T00:03:41;7.80;45.50
1351;DHT22;669;50.206;9.998;2023-05-18T00:06:09;7.80;45.50
1351;DHT22;669;50.206;9.998;2023-05-18T00:08:37;7.80;44.90
1351;DHT22;669;50.206;9.998;2023-05-18T00:11:05;7.80;45.00
1351;DHT22;669;50.206;9.998;2023-05-18T00:13:33;7.80;45.60
1351;DHT22;669;50.206;9.998;2023-05-18T00:16:01;7.60;47.20
1351;DHT22;669;50.206;9.998;2023-05-18T00:18:29;7.50;47.40
1351;DHT22;669;50.206;9.998;2023-05-18T00:20:58;7.50;47.10
1351;DHT22;669;50.206;9.998;2023-05-18T00:23:28;7.40;48.20
1351;DHT22;669;50.206;9.998;2023-05-18T00:25:59;7.40;48.40
1351;DHT22;669;50.206;9.998;2023-05-18T00:28:28;7.40;47.70
1351;DHT22;669;50.206;9.998;2023-05-18T00:30:56;7.30;47.60
1351;DHT22;669;50.206;9.998;2023-05-18T00:33:26;7.30;47.50
1351;DHT22;669;50.206;9.998;2023-05-18T00:35:54;7.40;47.70
1351;DHT22;669;50.206;9.998;2023-05-18T00:38:24;7.40;48.00
1351;DHT22;669;50.206;9.998;2023-05-18T00:40:52;7.30;47.90
1351;DHT22;669;50.206;9.998;2023-05-18T00:43:20;7.30;48.70
1351;DHT22;669;50.206;9.998;2023-05-18T00:45:48;7.20;48.40
1351;DHT22;669;50.206;9.998;2023-05-18T00:48:16;7.20;49.00
1351;DHT22;669;50.206;9.998;2023-05-18T00:50:44;7.20;49.00
1351;DHT22;669;50.206;9.998;2023-05-18T00:53:12;7.10;49.30
1351;DHT22;669;50.206;9.998;2023-05-18T00:55:42;7.10;50.40
1351;DHT22;669;50.206;9.998;2023-05-18T00:58:10;7.10;50.60
1351;DHT22;669;50.206;9.998;2023-05-18T01:00:38;7.10;50.80
1351;DHT22;669;50.206;9.998;2023-05-18T01:03:07;7.10;50.30
1351;DHT22;669;50.206;9.998;2023-05-18T01:05:37;7.10;50.20
1351;DHT22;669;50.206;9.998;2023-05-18T01:08:06;7.10;49.70
1351;DHT22;669;50.206;9.998;2023-05-18T01:10:36;7.20;49.60
1351;DHT22;669;50.206;9.998;2023-05-18T01:13:14;7.20;49.60
1351;DHT22;669;50.206;9.998;2023-05-18T01:15:47;7.20;49.10
1351;DHT22;669;50.206;9.998;2023-05-18T01:18:21;7.20;49.00
1351;DHT22;669;50.206;9.998;2023-05-18T01:20:58;7.20;49.00
1351;DHT22;669;50.206;9.998;2023-05-18T01:23:47;7.20;49.10
1351;DHT22;669;50.206;9.998;2023-05-18T01:26:22;7.20;49.00
1351;DHT22;669;50.206;9.998;2023-05-18T01:28:57;7.20;48.60
1351;DHT22;669;50.206;9.998;2023-05-18T01:31:26;7.20;48.30
1351;DHT22;669;50.206;9.998;2023-05-18T01:33:54;7.20;48.00
1351;DHT22;669;50.206;9.998;2023-05-18T01:36:22;7.00;48.90
1351;DHT22;669;50.206;9.998;2023-05-18T01:38:50;7.00;48.90
1351;DHT22;669;50.206;9.998;2023-05-18T01:41:21;6.90;48.80
1351;DHT22;669;50.206;9.998;2023-05-18T01:43:54;6.80;48.90
1351;DHT22;669;50.206;9.998;2023-05-18T01:46:33;6.70;49.20
1351;DHT22;669;50.206;9.998;2023-05-18T01:49:11;6.70;50.20
1351;DHT22;669;50.206;9.998;2023-05-18T01:51:43;6.60;49.40
1351;DHT22;669;50.206;9.998;2023-05-18T01:54:14;6.60;49.30
1351;DHT22;669;50.206;9.998;2023-05-18T01:56:46;6.60;48.50
1351;DHT22;669;50.206;9.998;2023-05-18T01:59:15;6.50;49.70
1351;DHT22;669;50.206;9.998;2023-05-18T02:01:44;6.40;49.80
1351;DHT22;669;50.206;9.998;2023-05-18T02:04:12;6.30;50.80
1351;DHT22;669;50.206;9.998;2023-05-18T02:06:40;6.30;51.10
1351;DHT22;669;50.206;9.998;2023-05-18T02:09:08;6.20;52.60
1351;DHT22;669;50.206;9.998;2023-05-18T02:11:36;6.30;51.70
1351;DHT22;669;50.206;9.998;2023-05-18T02:14:05;6.20;52.10
1351;DHT22;669;50.206;9.998;2023-05-18T02:16:33;6.10;52.70
1351;DHT22;669;50.206;9.998;2023-05-18T02:19:01;6.10;54.10
1351;DHT22;669;50.206;9.998;2023-05-18T02:21:30;6.10;52.70
1351;DHT22;669;50.206;9.998;2023-05-18T02:24:00;6.10;53.20
1351;DHT22;669;50.206;9.998;2023-05-18T02:26:28;6.00;54.50
1351;DHT22;669;50.206;9.998;2023-05-18T02:28:56;6.00;54.40
1351;DHT22;669;50.206;9.998;2023-05-18T02:31:25;6.10;54.10
1351;DHT22;669;50.206;9.998;2023-05-18T02:33:55;6.00;55.20
1351;DHT22;669;50.206;9.998;2023-05-18T02:36:23;6.00;54.70
1351;DHT22;669;50.206;9.998;2023-05-18T02:38:52;6.00;54.70
1351;DHT22;669;50.206;9.998;2023-05-18T02:41:20;6.00;54.50
1351;DHT22;669;50.206;9.998;2023-05-18T02:43:48;5.90;57.00
1351;DHT22;669;50.206;9.998;2023-05-18T02:46:16;5.90;57.70
1351;DHT22;669;50.206;9.998;2023-05-18T02:48:45;6.00;58.20
1351;DHT22;669;50.206;9.998;2023-05-18T02:51:13;6.00;57.50
1351;DHT22;669;50.206;9.998;2023-05-18T02:53:41;5.90;56.70
1351;DHT22;669;50.206;9.998;2023-05-18T02:56:09;5.90;57.40
1351;DHT22;669;50.206;9.998;2023-05-18T02:58:38;5.90;60.00
1351;DHT22;669;50.206;9.998;2023-05-18T03:01:06;6.00;59.20
1351;DHT22;669;50.206;9.998;2023-05-18T03:03:34;6.10;59.20
1351;DHT22;669;50.206;9.998;2023-05-18T03:06:04;6.00;58.50
1351;DHT22;669;50.206;9.998;2023-05-18T03:08:33;6.00;57.10
1351;DHT22;669;50.206;9.998;2023-05-18T03:11:03;6.10;58.30
1351;DHT22;669;50.206;9.998;2023-05-18T03:13:31;6.10;58.70
1351;DHT22;669;50.206;9.998;2023-05-18T03:15:59;6.20;58.50
1351;DHT22;669;50.206;9.998;2023-05-18T03:18:27;6.20;58.00
1351;DHT22;669;50.206;9.998;2023-05-18T03:20:55;6.30;58.10
1351;DHT22;669;50.206;9.998;2023-05-18T03:23:29;6.30;57.30
1351;DHT22;669;50.206;9.998;2023-05-18T03:25:57;6.30;57.40
1351;DHT22;669;50.206;9.998;2023-05-18T03:28:25;6.30;57.30
1351;DHT22;669;50.206;9.998;2023-05-18T03:30:53;6.30;58.40
1351;DHT22;669;50.206;9.998;2023-05-18T03:33:21;6.30;60.80
1351;DHT22;669;50.206;9.998;2023-05-18T03:35:49;6.30;59.30
1351;DHT22;669;50.206;9.998;2023-05-18T03:38:18;6.20;59.70
1351;DHT22;669;50.206;9.998;2023-05-18T03:40:47;6.20;60.10
1351;DHT22;669;50.206;9.998;2023-05-18T03:43:15;6.30;60.70
1351;DHT22;669;50.206;9.998;2023-05-18T03:45:43;6.40;60.00
1351;DHT22;669;50.206;9.998;2023-05-18T03:48:11;6.40;59.50
1351;DHT22;669;50.206;9.998;2023-05-18T03:50:39;6.40;60.00
1351;DHT22;669;50.206;9.998;2023-05-18T03:53:07;6.40;59.70
1351;DHT22;669;50.206;9.998;2023-05-18T03:55:36;6.50;59.50
1351;DHT22;669;50.206;9.998;2023-05-18T03:58:05;6.50;59.80
1351;DHT22;669;50.206;9.998;2023-05-18T04:00:33;6.50;59.30
1351;DHT22;669;50.206;9.998;2023-05-18T04:03:01;6.60;59.70
1351;DHT22;669;50.206;9.998;2023-05-18T04:05:30;6.60;58.70
1351;DHT22;669;50.206;9.998;2023-05-18T04:07:59;6.70;58.30
1351;DHT22;669;50.206;9.998;2023-05-18T04:10:27;6.80;58.30
1351;DHT22;669;50.206;9.998;2023-05-18T04:12:55;6.90;58.20
1351;DHT22;669;50.206;9.998;2023-05-18T04:15:24;6.90;57.80
1351;DHT22;669;50.206;9.998;2023-05-18T04:17:52;7.00;58.40
1351;DHT22;669;50.206;9.998;2023-05-18T04:20:20;7.10;58.50
1351;DHT22;669;50.206;9.998;2023-05-18T04:22:48;7.20;57.50
1351;DHT22;669;50.206;9.998;2023-05-18T04:25:16;7.30;57.00
1351;DHT22;669;50.206;9.998;2023-05-18T04:27:45;7.40;54.50
1351;DHT22;669;50.206;9.998;2023-05-18T04:30:17;7.60;55.40
1351;DHT22;669;50.206;9.998;2023-05-18T04:32:49;7.70;53.50
1351;DHT22;669;50.206;9.998;2023-05-18T04:35:17;7.80;53.20
1351;DHT22;669;50.206;9.998;2023-05-18T04:37:45;7.90;51.80
1351;DHT22;669;50.206;9.998;2023-05-18T04:40:13;8.10;51.30
1351;DHT22;669;50.206;9.998;2023-05-18T04:42:43;8.00;50.90
1351;DHT22;669;50.206;9.998;2023-05-18T04:45:15;8.10;50.80
1351;DHT22;669;50.206;9.998;2023-05-18T04:47:44;8.10;49.90
1351;DHT22;669;50.206;9.998;2023-05-18T04:50:18;8.20;49.80
1351;DHT22;669;50.206;9.998;2023-05-18T04:52:47;8.30;50.00
1351;DHT22;669;50.206;9.998;2023-05-18T04:55:16;8.40;48.00
1351;DHT22;669;50.206;9.998;2023-05-18T04:57:48;8.50;47.40
1351;DHT22;669;50.206;9.998;2023-05-18T05:00:19;8.70;46.50
1351;DHT22;669;50.206;9.998;2023-05-18T05:02:47;8.80;47.80
1351;DHT22;669;50.206;9.998;2023-05-18T05:05:17;8.80;45.80
1351;DHT22;669;50.206;9.998;2023-05-18T05:07:45;8.90;47.40
1351;DHT22;669;50.206;9.998;2023-05-18T05:10:13;8.90;46.70
1351;DHT22;669;50.206;9.998;2023-05-18T05:12:41;8.90;45.70
1351;DHT22;669;50.206;9.998;2023-05-18T05:15:09;8.90;46.70
1351;DHT22;669;50.206;9.998;2023-05-18T05:17:37;8.90;45.00
1351;DHT22;669;50.206;9.998;2023-05-18T05:20:06;8.90;46.90
1351;DHT22;669;50.206;9.998;2023-05-18T05:22:35;8.90;47.50
1351;DHT22;669;50.206;9.998;2023-05-18T05:25:04;9.00;45.00
1351;DHT22;669;50.206;9.998;2023-05-18T05:27:32;9.20;45.30
1351;DHT22;669;50.206;9.998;2023-05-18T05:30:00;9.40;45.90
1351;DHT22;669;50.206;9.998;2023-05-18T05:32:28;9.60;43.00
1351;DHT22;669;50.206;9.998;2023-05-18T05:34:56;9.80;44.30
1351;DHT22;669;50.206;9.998;2023-05-18T05:37:24;10.00;41.80
1351;DHT22;669;50.206;9.998;2023-05-18T05:39:54;10.30;42.20
1351;DHT22;669;50.206;9.998;2023-05-18T05:42:22;10.70;39.80
1351;DHT22;669;50.206;9.998;2023-05-18T05:44:51;11.10;38.50
1351;DHT22;669;50.206;9.998;2023-05-18T05:47:19;11.30;37.30
1351;DHT22;669;50.206;9.998;2023-05-18T05:49:47;11.40;37.90
1351;DHT22;669;50.206;9.998;2023-05-18T05:52:15;11.40;36.90
1351;DHT22;669;50.206;9.998;2023-05-18T05:54:43;11.70;36.00
1351;DHT22;669;50.206;9.998;2023-05-18T05:57:12;11.80;33.70
1351;DHT22;669;50.206;9.998;2023-05-18T05:59:40;11.70;36.80
1351;DHT22;669;50.206;9.998;2023-05-18T06:02:08;11.60;36.10
1351;DHT22;669;50.206;9.998;2023-05-18T06:04:36;11.90;37.40
1351;DHT22;669;50.206;9.998;2023-05-18T06:07:05;11.90;35.40
1351;DHT22;669;50.206;9.998;2023-05-18T06:09:33;12.00;35.50
1351;DHT22;669;50.206;9.998;2023-05-18T06:12:01;12.30;34.90
1351;DHT22;669;50.206;9.998;2023-05-18T06:14:30;12.70;36.70
1351;DHT22;669;50.206;9.998;2023-05-18T06:16:58;12.70;34.70
1351;DHT22;669;50.206;9.998;2023-05-18T06:19:26;12.60;35.20
1351;DHT22;669;50.206;9.998;2023-05-18T06:21:54;12.80;33.90
1351;DHT22;669;50.206;9.998;2023-05-18T06:24:22;12.90;34.50
1351;DHT22;669;50.206;9.998;2023-05-18T06:26:50;13.10;35.10
1351;DHT22;669;50.206;9.998;2023-05-18T06:29:18;13.20;32.60
1351;DHT22;669;50.206;9.998;2023-05-18T06:31:48;13.40;31.70
1351;DHT22;669;50.206;9.998;2023-05-18T06:34:16;13.50;33.00
1351;DHT22;669;50.206;9.998;2023-05-18T06:36:44;13.20;31.30
1351;DHT22;669;50.206;9.998;2023-05-18T06:39:13;13.00;33.20
1351;DHT22;669;50.206;9.998;2023-05-18T06:41:41;12.80;33.90
1351;DHT22;669;50.206;9.998;2023-05-18T06:44:10;12.80;31.80
1351;DHT22;669;50.206;9.998;2023-05-18T06:46:38;12.80;32.00
1351;DHT22;669;50.206;9.998;2023-05-18T06:49:08;12.50;33.70
1351;DHT22;669;50.206;9.998;2023-05-18T06:51:36;12.60;33.00
1351;DHT22;669;50.206;9.998;2023-05-18T06:54:04;12.60;32.00
1351;DHT22;669;50.206;9.998;2023-05-18T06:56:32;12.70;33.70
1351;DHT22;669;50.206;9.998;2023-05-18T06:59:00;12.70;31.20
1351;DHT22;669;50.206;9.998;2023-05-18T07:01:29;12.80;31.60
1351;DHT22;669;50.206;9.998;2023-05-18T07:03:57;12.80;35.50
1351;DHT22;669;50.206;9.998;2023-05-18T07:06:26;12.70;33.80
1351;DHT22;669;50.206;9.998;2023-05-18T07:08:54;12.70;33.70
1351;DHT22;669;50.206;9.998;2023-05-18T07:11:23;12.60;32.00
1351;DHT22;669;50.206;9.998;2023-05-18T07:13:55;12.50;34.20
1351;DHT22;669;50.206;9.998;2023-05-18T07:16:24;12.70;36.10
1351;DHT22;669;50.206;9.998;2023-05-18T07:18:52;12.80;32.20
1351;DHT22;669;50.206;9.998;2023-05-18T07:21:20;12.90;34.00
1351;DHT22;669;50.206;9.998;2023-05-18T07:23:50;13.10;34.20
1351;DHT22;669;50.206;9.998;2023-05-18T07:26:19;13.10;34.20
1351;DHT22;669;50.206;9.998;2023-05-18T07:28:47;12.90;33.20
1351;DHT22;669;50.206;9.998;2023-05-18T07:31:17;12.90;33.60
1351;DHT22;669;50.206;9.998;2023-05-18T07:33:47;13.10;33.90
1351;DHT22;669;50.206;9.998;2023-05-18T07:36:15;13.00;33.50
1351;DHT22;669;50.206;9.998;2023-05-18T07:38:43;13.20;36.90
1351;DHT22;669;50.206;9.998;2023-05-18T07:41:12;13.40;34.50
1351;DHT22;669;50.206;9.998;2023-05-18T07:43:40;13.40;34.50
1351;DHT22;669;50.206;9.998;2023-05-18T07:46:08;13.60;32.90
1351;DHT22;669;50.206;9.998;2023-05-18T07:48:36;13.70;36.30
1351;DHT22;669;50.206;9.998;2023-05-18T07:51:06;13.90;31.80
1351;DHT22;669;50.206;9.998;2023-05-18T07:53:34;13.80;34.40
1351;DHT22;669;50.206;9.998;2023-05-18T07:56:04;14.00;32.10
1351;DHT22;669;50.206;9.998;2023-05-18T07:58:34;13.90;32.10
1351;DHT22;669;50.206;9.998;2023-05-18T08:01:02;14.10;34.20
1351;DHT22;669;50.206;9.998;2023-05-18T08:03:30;14.40;32.80
1351;DHT22;669;50.206;9.998;2023-05-18T08:05:59;14.60;33.30
1351;DHT22;669;50.206;9.998;2023-05-18T08:08:26;14.70;34.80
1351;DHT22;669;50.206;9.998;2023-05-18T08:10:56;14.80;31.20
1351;DHT22;669;50.206;9.998;2023-05-18T08:13:24;14.90;32.80
1351;DHT22;669;50.206;9.998;2023-05-18T08:15:53;15.10;29.60
1351;DHT22;669;50.206;9.998;2023-05-18T08:18:37;15.30;27.90
1351;DHT22;669;50.206;9.998;2023-05-18T08:21:06;15.30;29.00
1351;DHT22;669;50.206;9.998;2023-05-18T08:23:36;15.50;28.70
1351;DHT22;669;50.206;9.998;2023-05-18T08:26:04;15.50;28.30
1351;DHT22;669;50.206;9.998;2023-05-18T08:28:34;15.30;31.30
1351;DHT22;669;50.206;9.998;2023-05-18T08:31:03;15.40;29.60
1351;DHT22;669;50.206;9.998;2023-05-18T08:33:31;15.50;30.50
1351;DHT22;669;50.206;9.998;2023-05-18T08:35:59;15.50;29.70
1351;DHT22;669;50.206;9.998;2023-05-18T08:38:27;15.60;30.80
1351;DHT22;669;50.206;9.998;2023-05-18T08:41:01;15.80;29.90
1351;DHT22;669;50.206;9.998;2023-05-18T08:43:32;16.00;29.60
1351;DHT22;669;50.206;9.998;2023-05-18T08:46:09;15.80;29.10
1351;DHT22;669;50.206;9.998;2023-05-18T08:48:41;16.10;31.30
1351;DHT22;669;50.206;9.998;2023-05-18T08:51:11;16.20;28.90
1351;DHT22;669;50.206;9.998;2023-05-18T08:53:41;16.10;29.50
1351;DHT22;669;50.206;9.998;2023-05-18T08:56:10;16.00;27.70
1351;DHT22;669;50.206;9.998;2023-05-18T08:58:43;15.70;28.10
1351;DHT22;669;50.206;9.998;2023-05-18T09:01:13;15.60;28.40
1351;DHT22;669;50.206;9.998;2023-05-18T09:03:41;15.80;31.30
1351;DHT22;669;50.206;9.998;2023-05-18T09:06:10;16.10;29.70
1351;DHT22;669;50.206;9.998;2023-05-18T09:08:39;16.20;28.70
1351;DHT22;669;50.206;9.998;2023-05-18T09:11:07;16.10;27.70
1351;DHT22;669;50.206;9.998;2023-05-18T09:13:35;16.30;31.70
1351;DHT22;669;50.206;9.998;2023-05-18T09:16:05;16.30;27.90
1351;DHT22;669;50.206;9.998;2023-05-18T09:18:35;16.30;27.90
1351;DHT22;669;50.206;9.998;2023-05-18T09:21:03;16.70;28.10
1351;DHT22;669;50.206;9.998;2023-05-18T09:23:32;16.80;27.50
1351;DHT22;669;50.206;9.998;2023-05-18T09:26:00;16.10;27.60
1351;DHT22;669;50.206;9.998;2023-05-18T09:28:32;16.20;27.80
1351;DHT22;669;50.206;9.998;2023-05-18T09:31:02;16.50;28.80
1351;DHT22;669;50.206;9.998;2023-05-18T09:33:33;16.90;30.90
1351;DHT22;669;50.206;9.998;2023-05-18T09:36:05;17.20;27.10
1351;DHT22;669;50.206;9.998;2023-05-18T09:38:36;17.60;27.70
1351;DHT22;669;50.206;9.998;2023-05-18T09:41:08;17.30;26.40
1351;DHT22;669;50.206;9.998;2023-05-18T09:43:36;17.10;27.40
1351;DHT22;669;50.206;9.998;2023-05-18T09:46:05;17.00;28.90
1351;DHT22;669;50.206;9.998;2023-05-18T09:48:35;16.90;27.90
1351;DHT22;669;50.206;9.998;2023-05-18T09:51:05;16.90;27.70
1351;DHT22;669;50.206;9.998;2023-05-18T09:53:34;16.70;25.30
1351;DHT22;669;50.206;9.998;2023-05-18T09:56:04;16.70;25.50
1351;DHT22;669;50.206;9.998;2023-05-18T09:58:35;16.70;27.40
1351;DHT22;669;50.206;9.998;2023-05-18T10:01:03;17.10;28.40
1351;DHT22;669;50.206;9.998;2023-05-18T10:03:33;17.40;30.10
1351;DHT22;669;50.206;9.998;2023-05-18T10:06:05;17.30;29.00
1351;DHT22;669;50.206;9.998;2023-05-18T10:08:35;17.00;27.20
1351;DHT22;669;50.206;9.998;2023-05-18T10:11:03;16.90;26.60
1351;DHT22;669;50.206;9.998;2023-05-18T10:13:33;16.80;27.80
1351;DHT22;669;50.206;9.998;2023-05-18T10:16:02;16.80;26.80
1351;DHT22;669;50.206;9.998;2023-05-18T10:18:33;16.90;26.90
1351;DHT22;669;50.206;9.998;2023-05-18T10:21:05;16.80;27.10
1351;DHT22;669;50.206;9.998;2023-05-18T10:23:35;16.80;29.10
1351;DHT22;669;50.206;9.998;2023-05-18T10:26:05;17.20;26.70
1351;DHT22;669;50.206;9.998;2023-05-18T10:28:37;17.00;24.20
1351;DHT22;669;50.206;9.998;2023-05-18T10:31:08;16.40;24.80
1351;DHT22;669;50.206;9.998;2023-05-18T10:33:37;16.20;27.80
1351;DHT22;669;50.206;9.998;2023-05-18T10:36:08;16.30;27.10
1351;DHT22;669;50.206;9.998;2023-05-18T10:38:37;16.30;26.10
1351;DHT22;669;50.206;9.998;2023-05-18T10:41:06;16.40;26.60
1351;DHT22;669;50.206;9.998;2023-05-18T10:43:36;16.70;27.20
1351;DHT22;669;50.206;9.998;2023-05-18T10:46:05;16.70;26.20
1351;DHT22;669;50.206;9.998;2023-05-18T10:48:37;16.80;26.40
1351;DHT22;669;50.206;9.998;2023-05-18T10:51:07;17.00;25.80
1351;DHT22;669;50.206;9.998;2023-05-18T10:53:35;16.90;26.20
1351;DHT22;669;50.206;9.998;2023-05-18T10:56:05;17.00;26.20
1351;DHT22;669;50.206;9.998;2023-05-18T10:58:34;17.40;26.40
1351;DHT22;669;50.206;9.998;2023-05-18T11:01:06;17.80;27.40
1351;DHT22;669;50.206;9.998;2023-05-18T11:03:37;18.10;27.20
1351;DHT22;669;50.206;9.998;2023-05-18T11:06:08;18.30;26.00
1351;DHT22;669;50.206;9.998;2023-05-18T11:08:47;18.50;25.20
1351;DHT22;669;50.206;9.998;2023-05-18T11:11:16;18.70;27.10
1351;DHT22;669;50.206;9.998;2023-05-18T11:13:47;19.00;24.20
1351;DHT22;669;50.206;9.998;2023-05-18T11:16:16;19.40;24.70
1351;DHT22;669;50.206;9.998;2023-05-18T11:18:45;19.90;25.70
1351;DHT22;669;50.206;9.998;2023-05-18T11:21:22;20.40;22.80
1351;DHT22;669;50.206;9.998;2023-05-18T11:24:19;20.80;25.10
1351;DHT22;669;50.206;9.998;2023-05-18T11:26:49;20.30;23.10
1351;DHT22;669;50.206;9.998;2023-05-18T11:29:20;19.80;24.30
1351;DHT22;669;50.206;9.998;2023-05-18T11:31:51;19.40;24.40
1351;DHT22;669;50.206;9.998;2023-05-18T11:34:39;19.10;25.40
1351;DHT22;669;50.206;9.998;2023-05-18T11:37:13;18.90;23.10
1351;DHT22;669;50.206;9.998;2023-05-18T11:39:41;19.50;25.60
1351;DHT22;669;50.206;9.998;2023-05-18T11:42:31;19.80;23.80
1351;DHT22;669;50.206;9.998;2023-05-18T11:45:05;20.50;23.30
1351;DHT22;669;50.206;9.998;2023-05-18T11:47:33;20.80;23.10
1351;DHT22;669;50.206;9.998;2023-05-18T11:50:06;21.20;23.00
1351;DHT22;669;50.206;9.998;2023-05-18T11:52:45;21.40;21.90
1351;DHT22;669;50.206;9.998;2023-05-18T11:55:14;21.40;22.30
1351;DHT22;669;50.206;9.998;2023-05-18T11:57:43;21.20;21.20
1351;DHT22;669;50.206;9.998;2023-05-18T12:00:12;21.10;20.60
1351;DHT22;669;50.206;9.998;2023-05-18T12:02:42;20.50;20.40
1351;DHT22;669;50.206;9.998;2023-05-18T12:05:12;20.10;22.60
1351;DHT22;669;50.206;9.998;2023-05-18T12:07:41;20.10;21.90
1351;DHT22;669;50.206;9.998;2023-05-18T12:10:13;20.20;21.60
1351;DHT22;669;50.206;9.998;2023-05-18T12:12:42;19.70;19.60
1351;DHT22;669;50.206;9.998;2023-05-18T12:15:10;19.50;23.60
1351;DHT22;669;50.206;9.998;2023-05-18T12:17:43;19.60;24.00
1351;DHT22;669;50.206;9.998;2023-05-18T12:20:12;19.60;23.00
1351;DHT22;669;50.206;9.998;2023-05-18T12:22:43;19.60;22.70
1351;DHT22;669;50.206;9.998;2023-05-18T12:25:12;19.20;22.00
1351;DHT22;669;50.206;9.998;2023-05-18T12:27:41;18.40;22.70
1351;DHT22;669;50.206;9.998;2023-05-18T12:30:11;18.00;22.20
1351;DHT22;669;50.206;9.998;2023-05-18T12:32:43;18.00;23.50
1351;DHT22;669;50.206;9.998;2023-05-18T12:35:11;18.80;24.00
1351;DHT22;669;50.206;9.998;2023-05-18T12:37:43;19.50;22.20
1351;DHT22;669;50.206;9.998;2023-05-18T12:40:15;20.20;19.90
1351;DHT22;669;50.206;9.998;2023-05-18T12:42:52;20.80;20.80
1351;DHT22;669;50.206;9.998;2023-05-18T12:45:22;21.40;23.50
1351;DHT22;669;50.206;9.998;2023-05-18T12:47:50;20.40;19.20
1351;DHT22;669;50.206;9.998;2023-05-18T12:50:21;19.60;21.00
1351;DHT22;669;50.206;9.998;2023-05-18T12:52:50;19.50;22.20
1351;DHT22;669;50.206;9.998;2023-05-18T12:55:21;20.20;22.60
1351;DHT22;669;50.206;9.998;2023-05-18T12:58:01;20.80;20.70
1351;DHT22;669;50.206;9.998;2023-05-18T13:00:32;20.80;21.40
1351;DHT22;669;50.206;9.998;2023-05-18T13:03:04;21.40;20.70
1351;DHT22;669;50.206;9.998;2023-05-18T13:05:33;21.50;20.70
1351;DHT22;669;50.206;9.998;2023-05-18T13:08:01;21.50;16.50
1351;DHT22;669;50.206;9.998;2023-05-18T13:10:31;21.10;22.00
1351;DHT22;669;50.206;9.998;2023-05-18T13:13:00;21.50;18.10
1351;DHT22;669;50.206;9.998;2023-05-18T13:15:32;21.90;20.70
1351;DHT22;669;50.206;9.998;2023-05-18T13:18:03;21.70;18.80
1351;DHT22;669;50.206;9.998;2023-05-18T13:20:33;20.40;19.20
1351;DHT22;669;50.206;9.998;2023-05-18T13:23:03;19.70;20.00
1351;DHT22;669;50.206;9.998;2023-05-18T13:25:33;20.00;19.90
1351;DHT22;669;50.206;9.998;2023-05-18T13:28:01;20.10;20.90
1351;DHT22;669;50.206;9.998;2023-05-18T13:30:29;20.20;24.00
1351;DHT22;669;50.206;9.998;2023-05-18T13:32:58;20.60;22.10
1351;DHT22;669;50.206;9.998;2023-05-18T13:35:27;20.80;21.70
1351;DHT22;669;50.206;9.998;2023-05-18T13:37:55;20.80;21.50
1351;DHT22;669;50.206;9.998;2023-05-18T13:40:23;20.70;21.00
1351;DHT22;669;50.206;9.998;2023-05-18T13:42:53;20.60;19.60
1351;DHT22;669;50.206;9.998;2023-05-18T13:45:21;20.40;20.70
1351;DHT22;669;50.206;9.998;2023-05-18T13:47:49;20.60;20.60
1351;DHT22;669;50.206;9.998;2023-05-18T13:50:18;20.60;22.00
1351;DHT22;669;50.206;9.998;2023-05-18T13:52:48;20.40;21.40
1351;DHT22;669;50.206;9.998;2023-05-18T13:55:16;20.20;20.30
1351;DHT22;669;50.206;9.998;2023-05-18T13:57:44;19.20;20.10
1351;DHT22;669;50.206;9.998;2023-05-18T14:00:15;18.90;21.80
1351;DHT22;669;50.206;9.998;2023-05-18T14:02:43;19.20;20.70
1351;DHT22;669;50.206;9.998;2023-05-18T14:05:12;19.30;19.50
1351;DHT22;669;50.206;9.998;2023-05-18T14:07:41;19.50;20.70
1351;DHT22;669;50.206;9.998;2023-05-18T14:10:11;19.50;21.40
1351;DHT22;669;50.206;9.998;2023-05-18T14:12:39;18.90;21.30
1351;DHT22;669;50.206;9.998;2023-05-18T14:15:09;18.50;21.50
1351;DHT22;669;50.206;9.998;2023-05-18T14:17:41;18.40;21.70
1351;DHT22;669;50.206;9.998;2023-05-18T14:20:10;18.60;26.00
1351;DHT22;669;50.206;9.998;2023-05-18T14:22:38;18.60;20.10
1351;DHT22;669;50.206;9.998;2023-05-18T14:25:07;18.80;23.80
1351;DHT22;669;50.206;9.998;2023-05-18T14:27:35;18.70;22.30
1351;DHT22;669;50.206;9.998;2023-05-18T14:30:04;18.50;24.80
1351;DHT22;669;50.206;9.998;2023-05-18T14:32:32;18.60;24.30
1351;DHT22;669;50.206;9.998;2023-05-18T14:35:02;18.70;22.40
1351;DHT22;669;50.206;9.998;2023-05-18T14:37:30;18.70;22.40
1351;DHT22;669;50.206;9.998;2023-05-18T14:39:58;18.70;23.50
1351;DHT22;669;50.206;9.998;2023-05-18T14:42:27;18.70;22.90
1351;DHT22;669;50.206;9.998;2023-05-18T14:44:54;18.70;22.40
1351;DHT22;669;50.206;9.998;2023-05-18T14:47:22;18.70;21.60
1351;DHT22;669;50.206;9.998;2023-05-18T14:49:50;18.80;21.70
1351;DHT22;669;50.206;9.998;2023-05-18T14:52:20;18.90;23.70
1351;DHT22;669;50.206;9.998;2023-05-18T14:54:47;19.00;22.90
1351;DHT22;669;50.206;9.998;2023-05-18T14:57:15;18.80;22.20
1351;DHT22;669;50.206;9.998;2023-05-18T14:59:43;18.20;21.30
1351;DHT22;669;50.206;9.998;2023-05-18T15:02:11;17.70;23.10
1351;DHT22;669;50.206;9.998;2023-05-18T15:04:40;17.30;21.70
1351;DHT22;669;50.206;9.998;2023-05-18T15:07:08;17.20;21.30
1351;DHT22;669;50.206;9.998;2023-05-18T15:09:37;17.30;22.20
1351;DHT22;669;50.206;9.998;2023-05-18T15:12:05;17.40;22.20
1351;DHT22;669;50.206;9.998;2023-05-18T15:14:33;17.50;21.60
1351;DHT22;669;50.206;9.998;2023-05-18T15:17:01;17.60;22.00
1351;DHT22;669;50.206;9.998;2023-05-18T15:19:29;17.60;22.30
1351;DHT22;669;50.206;9.998;2023-05-18T15:21:57;17.70;23.40
1351;DHT22;669;50.206;9.998;2023-05-18T15:24:25;17.80;21.20
1351;DHT22;669;50.206;9.998;2023-05-18T15:26:54;17.80;22.90
1351;DHT22;669;50.206;9.998;2023-05-18T15:29:22;17.60;23.40
1351;DHT22;669;50.206;9.998;2023-05-18T15:31:50;17.60;23.70
1351;DHT22;669;50.206;9.998;2023-05-18T15:34:20;17.70;21.80
1351;DHT22;669;50.206;9.998;2023-05-18T15:36:48;17.40;20.80
1351;DHT22;669;50.206;9.998;2023-05-18T15:39:18;17.30;22.90
1351;DHT22;669;50.206;9.998;2023-05-18T15:41:46;17.40;24.20
1351;DHT22;669;50.206;9.998;2023-05-18T15:44:15;17.40;22.00
1351;DHT22;669;50.206;9.998;2023-05-18T15:46:43;17.20;23.40
1351;DHT22;669;50.206;9.998;2023-05-18T15:49:11;17.30;22.30
1351;DHT22;669;50.206;9.998;2023-05-18T15:51:39;17.20;22.70
1351;DHT22;669;50.206;9.998;2023-05-18T15:54:07;17.00;22.40
1351;DHT22;669;50.206;9.998;2023-05-18T15:56:35;16.90;24.20
1351;DHT22;669;50.206;9.998;2023-05-18T15:59:03;16.60;21.10
1351;DHT22;669;50.206;9.998;2023-05-18T16:01:35;16.50;22.40
1351;DHT22;669;50.206;9.998;2023-05-18T16:04:03;16.50;21.80
1351;DHT22;669;50.206;9.998;2023-05-18T16:06:32;16.40;21.30
1351;DHT22;669;50.206;9.998;2023-05-18T16:09:02;16.30;23.90
1351;DHT22;669;50.206;9.998;2023-05-18T16:11:30;16.20;23.60
1351;DHT22;669;50.206;9.998;2023-05-18T16:13:58;16.10;23.60
1351;DHT22;669;50.206;9.998;2023-05-18T16:16:26;16.00;23.60
1351;DHT22;669;50.206;9.998;2023-05-18T16:18:55;16.00;23.90
1351;DHT22;669;50.206;9.998;2023-05-18T16:21:26;16.00;23.00
1351;DHT22;669;50.206;9.998;2023-05-18T16:23:54;16.00;23.80
1351;DHT22;669;50.206;9.998;2023-05-18T16:26:22;16.00;23.60
1351;DHT22;669;50.206;9.998;2023-05-18T16:28:50;16.00;23.70
1351;DHT22;669;50.206;9.998;2023-05-18T16:31:18;16.00;23.20
1351;DHT22;669;50.206;9.998;2023-05-18T16:33:46;16.00;23.90
1351;DHT22;669;50.206;9.998;2023-05-18T16:36:15;15.90;23.10
1351;DHT22;669;50.206;9.998;2023-05-18T16:38:43;15.80;24.20